Time;durP1;ratioP1;P1;durP2;ratioP2;P2;SDS_P1;SDS_P2;PMS_P1;PMS_P2;Temp;Humidity;BMP_temperature;BMP_pressure;BME280_temperature;BME280_humidity;BME280_pressure;Samples;Min_cycle;Max_cycle;Signal;HPM_P1;HPM_P2
2023/03/20 00:00:36;;;;;;;;;;;;;;;8.06;100.00;101932.16;5023190;28;19979;-74
2023/03/20 00:03:01;;;;;;;;;;;;;;;8.06;100.00;101940.16;5037969;28;20684;-74
2023/03/20 00:05:27;;;;;;;;;;;;;;;8.07;100.00;101933.88;5037981;28;20386;-74
2023/03/20 00:07:52;;;;;;;;;;;;;;;8.05;100.00;101933.09;5025350;28;20019;-74
2023/03/20 00:10:18;;;;;;;;;;;;;;;8.08;100.00;101924.88;5027490;28;19924;-74
2023/03/20 00:12:44;;;;;;;;;;;;;;;8.08;100.00;101932.06;5027473;28;19924;-75
2023/03/20 00:15:23;;;;;;;;;;;;;;;8.05;100.00;101932.19;5023947;28;19991;-74
2023/03/20 00:17:48;;;;;;;;;;;;;;;8.02;100.00;101930.56;5022873;28;19929;-74
2023/03/20 00:20:14;;;;;;;;;;;;;;;8.00;100.00;101920.84;5017837;28;19990;-74
2023/03/20 00:22:39;;;;;;;;;;;;;;;8.06;100.00;101929.47;5025455;28;19979;-74
2023/03/20 00:25:05;;;;;;;;;;;;;;;8.03;100.00;101924.28;5041225;28;19912;-74
2023/03/20 00:27:30;;;;;;;;;;;;;;;8.04;100.00;101917.97;5017623;28;19970;-74
2023/03/20 00:29:55;;;;;;;;;;;;;;;8.02;100.00;101927.00;5038496;28;19927;-74
2023/03/20 00:32:21;;;;;;;;;;;;;;;8.01;100.00;101930.63;5038864;28;20355;-74
2023/03/20 00:34:46;;;;;;;;;;;;;;;7.94;100.00;101919.38;5005440;28;20323;-75
2023/03/20 00:37:11;;;;;;;;;;;;;;;7.90;100.00;101916.00;5038357;28;19924;-74
2023/03/20 00:39:36;;;;;;;;;;;;;;;7.80;100.00;101907.56;5022730;28;19920;-74
2023/03/20 00:42:05;;;;;;;;;;;;;;;7.87;100.00;101908.13;5022692;28;19936;-74
2023/03/20 00:44:33;;;;;;;;;;;;;;;7.97;100.00;101919.22;5022550;28;19924;-75
2023/03/20 00:46:59;;;;;;;;;;;;;;;7.94;100.00;101906.00;5022013;28;19925;-74
2023/03/20 00:49:26;;;;;;;;;;;;;;;7.96;100.00;101898.75;5020697;28;19920;-74
2023/03/20 00:51:52;;;;;;;;;;;;;;;7.92;100.00;101899.84;5007510;28;20686;-75
2023/03/20 00:54:17;;;;;;;;;;;;;;;7.87;100.00;101891.19;5040746;28;19979;-75
2023/03/20 00:56:48;;;;;;;;;;;;;;;7.90;100.00;101888.38;5007273;28;19916;-75
2023/03/20 00:59:15;;;;;;;;;;;;;;;7.84;100.00;101902.91;5023760;28;19920;-75
2023/03/20 01:01:41;;;;;;;;;;;;;;;7.95;100.00;101902.38;5005072;28;19925;-75
2023/03/20 01:04:10;;;;;;;;;;;;;;;7.97;100.00;101897.81;5039493;28;19924;-75
2023/03/20 01:06:36;;;;;;;;;;;;;;;7.86;100.00;101893.00;5006464;28;20027;-75
2023/03/20 01:09:02;;;;;;;;;;;;;;;7.85;100.00;101888.59;5019686;28;20023;-74
2023/03/20 01:11:27;;;;;;;;;;;;;;;7.87;100.00;101901.88;5022448;28;19920;-74
2023/03/20 01:13:53;;;;;;;;;;;;;;;7.84;100.00;101912.72;5024371;28;19921;-74
2023/03/20 01:16:19;;;;;;;;;;;;;;;7.88;100.00;101922.34;5004725;28;20692;-74
2023/03/20 01:18:45;;;;;;;;;;;;;;;7.92;100.00;101927.47;5040633;28;20047;-74
2023/03/20 01:21:11;;;;;;;;;;;;;;;7.88;100.00;101931.25;5016740;28;20302;-74
2023/03/20 01:23:36;;;;;;;;;;;;;;;7.82;100.00;101934.22;5045361;28;20391;-74
2023/03/20 01:26:01;;;;;;;;;;;;;;;7.90;100.00;101933.81;5024518;28;19924;-73
2023/03/20 01:28:27;;;;;;;;;;;;;;;7.92;100.00;101934.63;5027749;28;19932;-74
2023/03/20 01:30:52;;;;;;;;;;;;;;;7.86;100.00;101930.44;5025174;28;19927;-74
2023/03/20 01:33:21;;;;;;;;;;;;;;;7.84;100.00;101936.78;5023159;28;19923;-74
2023/03/20 01:35:46;;;;;;;;;;;;;;;7.79;100.00;101939.69;5041466;28;20303;-74
2023/03/20 01:38:22;;;;;;;;;;;;;;;7.83;100.00;101943.97;5042950;28;19928;-74
2023/03/20 01:40:57;;;;;;;;;;;;;;;7.82;100.00;101936.88;5010721;28;20059;-74
2023/03/20 01:43:22;;;;;;;;;;;;;;;7.81;100.00;101936.00;5042923;28;20314;-73
2023/03/20 01:45:52;;;;;;;;;;;;;;;7.80;100.00;101934.28;5024847;28;19925;-74
2023/03/20 01:48:17;;;;;;;;;;;;;;;7.78;100.00;101941.53;5017344;28;19924;-74
2023/03/20 01:50:42;;;;;;;;;;;;;;;7.73;100.00;101934.63;5042526;28;19927;-73
2023/03/20 01:53:13;;;;;;;;;;;;;;;7.73;100.00;101940.88;5025904;28;20015;-73
2023/03/20 01:55:39;;;;;;;;;;;;;;;7.74;100.00;101944.41;5039299;28;19940;-73
2023/03/20 01:58:06;;;;;;;;;;;;;;;7.65;100.00;101930.56;5043261;28;20012;-73
2023/03/20 02:00:31;;;;;;;;;;;;;;;7.63;100.00;101935.09;5046319;28;20022;-74
2023/03/20 02:02:56;;;;;;;;;;;;;;;7.50;100.00;101931.28;5025297;28;19924;-73
2023/03/20 02:05:22;;;;;;;;;;;;;;;7.44;100.00;101926.19;5023322;28;19928;-74
2023/03/20 02:08:06;;;;;;;;;;;;;;;7.39;100.00;101920.25;5038729;28;19920;-73
2023/03/20 02:10:31;;;;;;;;;;;;;;;7.37;100.00;101927.47;5037486;28;19928;-73
2023/03/20 02:12:57;;;;;;;;;;;;;;;7.34;100.00;101932.00;5023712;28;19917;-74
2023/03/20 02:15:24;;;;;;;;;;;;;;;7.24;100.00;101928.00;5006371;28;19917;-74
2023/03/20 02:17:50;;;;;;;;;;;;;;;7.19;100.00;101927.34;5003041;28;19918;-74
2023/03/20 02:20:21;;;;;;;;;;;;;;;7.11;100.00;101922.38;5024417;28;19921;-73
2023/03/20 02:23:05;;;;;;;;;;;;;;;7.04;100.00;101919.13;5022693;28;19925;-74
2023/03/20 02:25:31;;;;;;;;;;;;;;;7.01;100.00;101918.41;5027947;28;19946;-73
2023/03/20 02:28:05;;;;;;;;;;;;;;;6.94;100.00;101916.94;5027580;28;19920;-74
2023/03/20 02:30:30;;;;;;;;;;;;;;;6.85;100.00;101928.91;5045469;28;19925;-73
2023/03/20 02:33:01;;;;;;;;;;;;;;;6.73;100.00;101935.66;5025786;28;19917;-73
2023/03/20 02:35:45;;;;;;;;;;;;;;;6.63;100.00;101932.50;5042750;28;19975;-74
2023/03/20 02:38:14;;;;;;;;;;;;;;;6.62;100.00;101933.47;5043134;28;20274;-74
2023/03/20 02:40:42;;;;;;;;;;;;;;;6.64;100.00;101938.72;5023278;28;19920;-74
2023/03/20 02:43:18;;;;;;;;;;;;;;;6.56;100.00;101939.06;5022080;28;19925;-73
2023/03/20 02:45:49;;;;;;;;;;;;;;;6.62;100.00;101937.91;5041470;28;20066;-74
2023/03/20 02:48:18;;;;;;;;;;;;;;;6.57;100.00;101938.97;5043861;28;19920;-73
2023/03/20 02:50:43;;;;;;;;;;;;;;;6.54;100.00;101925.78;5041334;28;19925;-74
2023/03/20 02:53:11;;;;;;;;;;;;;;;6.49;100.00;101927.75;5037471;28;20240;-74
2023/03/20 02:55:45;;;;;;;;;;;;;;;6.47;100.00;101912.75;5042859;28;19917;-73
2023/03/20 02:58:15;;;;;;;;;;;;;;;6.43;100.00;101917.38;5028905;28;20361;-74
2023/03/20 03:00:41;;;;;;;;;;;;;;;6.38;100.00;101911.38;5013518;28;20041;-73
2023/03/20 03:03:14;;;;;;;;;;;;;;;6.39;100.00;101919.28;5044110;28;20477;-74
2023/03/20 03:05:50;;;;;;;;;;;;;;;6.30;100.00;101901.88;5040636;28;19951;-74
2023/03/20 03:08:16;;;;;;;;;;;;;;;6.37;100.00;101915.81;5008757;28;19924;-73
2023/03/20 03:11:02;;;;;;;;;;;;;;;6.33;100.00;101911.56;5038596;28;19924;-74
2023/03/20 03:13:28;;;;;;;;;;;;;;;6.31;100.00;101913.44;5042023;28;21198;-73
2023/03/20 03:15:54;;;;;;;;;;;;;;;6.34;100.00;101912.44;5025872;28;22833;-73
2023/03/20 03:18:20;;;;;;;;;;;;;;;6.36;100.00;101900.75;5039831;28;19956;-73
2023/03/20 03:20:46;;;;;;;;;;;;;;;6.34;100.00;101901.75;5006899;28;20059;-73
2023/03/20 03:23:18;;;;;;;;;;;;;;;6.28;100.00;101902.91;5021804;28;20015;-73
2023/03/20 03:25:43;;;;;;;;;;;;;;;6.23;100.00;101896.88;5017927;28;20429;-74
2023/03/20 03:28:27;;;;;;;;;;;;;;;6.30;100.00;101887.69;5011360;28;19928;-74
2023/03/20 03:30:52;;;;;;;;;;;;;;;6.31;100.00;101870.75;5043359;28;19916;-74
2023/03/20 03:33:18;;;;;;;;;;;;;;;6.41;100.00;101858.75;5008481;28;19931;-74
2023/03/20 03:35:44;;;;;;;;;;;;;;;6.29;100.00;101854.81;5041107;28;20003;-74
2023/03/20 03:38:17;;;;;;;;;;;;;;;6.36;100.00;101859.88;5037608;28;20024;-74
2023/03/20 03:40:48;;;;;;;;;;;;;;;6.44;100.00;101866.59;5038658;28;19971;-73
2023/03/20 03:43:17;;;;;;;;;;;;;;;6.28;100.00;101869.06;5021683;28;19927;-74
2023/03/20 03:46:09;;;;;;;;;;;;;;;6.09;100.00;101868.13;5024034;28;19921;-73
2023/03/20 03:48:36;;;;;;;;;;;;;;;6.00;100.00;101875.59;5022415;28;20386;-73
2023/03/20 03:51:06;;;;;;;;;;;;;;;6.19;100.00;101866.81;5039514;28;20291;-74
2023/03/20 03:53:33;;;;;;;;;;;;;;;6.35;100.00;101859.03;5035942;28;19994;-74
2023/03/20 03:56:00;;;;;;;;;;;;;;;6.10;100.00;101862.72;5022160;28;19929;-74
2023/03/20 03:58:27;;;;;;;;;;;;;;;5.85;100.00;101860.22;5036260;28;19921;-73
2023/03/20 04:00:53;;;;;;;;;;;;;;;6.05;100.00;101867.41;5023174;28;20275;-74
2023/03/20 04:03:19;;;;;;;;;;;;;;;5.83;100.00;101868.25;5018695;28;19931;-74
2023/03/20 04:05:44;;;;;;;;;;;;;;;5.78;100.00;101872.94;5015938;28;19921;-74
2023/03/20 04:08:10;;;;;;;;;;;;;;;5.71;100.00;101866.97;5038975;28;19974;-74
2023/03/20 04:10:35;;;;;;;;;;;;;;;5.66;100.00;101868.09;5038710;28;19924;-74
2023/03/20 04:13:00;;;;;;;;;;;;;;;5.68;100.00;101869.78;5024973;28;19964;-74
2023/03/20 04:15:26;;;;;;;;;;;;;;;5.67;100.00;101868.03;5029096;28;20023;-74
2023/03/20 04:17:52;;;;;;;;;;;;;;;5.74;100.00;101870.44;5007578;28;19927;-74
2023/03/20 04:20:17;;;;;;;;;;;;;;;5.74;100.00;101873.09;5023986;28;20015;-74
2023/03/20 04:22:42;;;;;;;;;;;;;;;5.81;100.00;101867.47;5020582;28;20697;-74
2023/03/20 04:25:08;;;;;;;;;;;;;;;5.78;100.00;101861.38;5009898;28;20394;-74
2023/03/20 04:27:34;;;;;;;;;;;;;;;5.62;100.00;101851.38;5025058;28;20371;-74
2023/03/20 04:29:59;;;;;;;;;;;;;;;5.68;100.00;101852.91;5025482;28;19921;-74
2023/03/20 04:32:25;;;;;;;;;;;;;;;5.69;100.00;101836.84;5011532;28;20012;-75
2023/03/20 04:34:51;;;;;;;;;;;;;;;5.63;100.00;101849.56;5037840;28;19927;-74
2023/03/20 04:37:16;;;;;;;;;;;;;;;5.76;100.00;101836.59;5010153;28;20271;-75
2023/03/20 04:39:41;;;;;;;;;;;;;;;5.64;100.00;101852.19;5010795;28;20008;-74
2023/03/20 04:42:07;;;;;;;;;;;;;;;5.66;100.00;101845.00;5029967;28;19928;-74
2023/03/20 04:44:32;;;;;;;;;;;;;;;5.67;100.00;101841.41;5024942;28;19920;-74
2023/03/20 04:46:57;;;;;;;;;;;;;;;5.63;100.00;101826.47;5022538;28;19971;-74
2023/03/20 04:49:23;;;;;;;;;;;;;;;5.48;100.00;101827.97;5021899;28;19932;-74
2023/03/20 04:51:48;;;;;;;;;;;;;;;5.44;100.00;101836.09;5040718;28;19946;-74
2023/03/20 04:54:13;;;;;;;;;;;;;;;5.61;100.00;101830.09;5035500;28;20468;-74
2023/03/20 04:56:38;;;;;;;;;;;;;;;5.60;100.00;101839.03;5005999;28;20593;-74
2023/03/20 04:59:04;;;;;;;;;;;;;;;5.69;100.00;101839.50;5021904;28;20358;-74
2023/03/20 05:01:29;;;;;;;;;;;;;;;5.65;100.00;101847.69;5044166;28;20677;-74
2023/03/20 05:03:59;;;;;;;;;;;;;;;5.55;100.00;101850.75;5027502;28;19925;-74
2023/03/20 05:06:25;;;;;;;;;;;;;;;5.48;100.00;101853.72;5023627;28;19925;-74
2023/03/20 05:08:50;;;;;;;;;;;;;;;5.48;100.00;101859.03;5006194;28;19956;-74
2023/03/20 05:11:16;;;;;;;;;;;;;;;5.66;100.00;101852.09;5011304;28;19967;-73
2023/03/20 05:13:41;;;;;;;;;;;;;;;5.59;100.00;101856.81;5021715;28;20738;-74
2023/03/20 05:16:06;;;;;;;;;;;;;;;5.54;100.00;101854.34;5019614;28;22060;-73
2023/03/20 05:18:31;;;;;;;;;;;;;;;5.59;100.00;101851.50;5021539;28;19924;-74
2023/03/20 05:20:57;;;;;;;;;;;;;;;5.58;100.00;101844.44;5024260;28;20719;-74
2023/03/20 05:23:22;;;;;;;;;;;;;;;5.55;100.00;101848.09;5041551;28;19925;-73
2023/03/20 05:25:47;;;;;;;;;;;;;;;5.55;100.00;101849.88;5041225;28;20272;-74
2023/03/20 05:28:12;;;;;;;;;;;;;;;5.65;100.00;101843.25;5025196;28;20020;-74
2023/03/20 05:30:38;;;;;;;;;;;;;;;5.78;100.00;101845.41;5043202;28;20003;-74
2023/03/20 05:33:03;;;;;;;;;;;;;;;5.68;100.00;101836.91;5025312;28;19932;-73
2023/03/20 05:35:28;;;;;;;;;;;;;;;5.77;100.00;101833.00;5028078;28;19941;-73
2023/03/20 05:37:53;;;;;;;;;;;;;;;5.90;100.00;101838.69;5037715;28;19912;-74
2023/03/20 05:40:22;;;;;;;;;;;;;;;5.74;100.00;101839.34;5043932;28;19952;-73
2023/03/20 05:42:48;;;;;;;;;;;;;;;5.77;100.00;101830.34;5017724;28;20008;-74
2023/03/20 05:45:14;;;;;;;;;;;;;;;5.76;100.00;101839.25;5039022;28;20015;-73
2023/03/20 05:47:39;;;;;;;;;;;;;;;5.82;100.00;101842.56;5031157;28;19935;-74
2023/03/20 05:50:05;;;;;;;;;;;;;;;5.72;100.00;101841.19;5038564;28;19920;-73
2023/03/20 05:52:30;;;;;;;;;;;;;;;5.76;100.00;101841.94;5016897;28;19924;-73
2023/03/20 05:54:55;;;;;;;;;;;;;;;5.73;100.00;101856.25;5014456;28;19920;-74
2023/03/20 05:57:21;;;;;;;;;;;;;;;5.76;100.00;101856.13;5028201;28;20673;-74
2023/03/20 05:59:46;;;;;;;;;;;;;;;5.85;100.00;101865.53;5024209;28;19921;-74
2023/03/20 06:02:12;;;;;;;;;;;;;;;5.88;100.00;101860.09;5028451;28;19978;-73
2023/03/20 06:04:38;;;;;;;;;;;;;;;5.81;100.00;101869.25;5013446;28;19916;-73
2023/03/20 06:07:03;;;;;;;;;;;;;;;5.71;100.00;101856.31;5046028;28;19932;-73
2023/03/20 06:09:28;;;;;;;;;;;;;;;5.70;100.00;101865.22;5044111;28;19925;-74
2023/03/20 06:11:54;;;;;;;;;;;;;;;5.80;100.00;101868.41;5046444;28;19921;-73
2023/03/20 06:14:19;;;;;;;;;;;;;;;5.88;100.00;101864.53;5025225;28;19921;-73
2023/03/20 06:16:44;;;;;;;;;;;;;;;5.88;100.00;101868.09;5031114;28;20346;-74
2023/03/20 06:19:10;;;;;;;;;;;;;;;5.89;100.00;101877.81;5016002;28;20359;-73
2023/03/20 06:21:35;;;;;;;;;;;;;;;5.83;100.00;101880.72;5029785;28;19939;-73
2023/03/20 06:24:01;;;;;;;;;;;;;;;5.83;100.00;101884.25;5044554;28;20451;-74
2023/03/20 06:26:26;;;;;;;;;;;;;;;5.91;100.00;101881.28;5029150;28;20777;-74
2023/03/20 06:28:52;;;;;;;;;;;;;;;6.15;100.00;101882.06;5035365;28;19920;-74
2023/03/20 06:31:17;;;;;;;;;;;;;;;6.06;100.00;101881.59;5029944;28;20295;-74
2023/03/20 06:33:43;;;;;;;;;;;;;;;6.08;100.00;101879.75;5031305;28;20429;-74
2023/03/20 06:36:08;;;;;;;;;;;;;;;6.22;100.00;101882.69;5047108;28;19917;-74
2023/03/20 06:38:34;;;;;;;;;;;;;;;6.10;100.00;101883.22;5047123;28;19916;-73
2023/03/20 06:40:59;;;;;;;;;;;;;;;6.22;100.00;101877.38;5048861;28;19932;-74
2023/03/20 06:43:24;;;;;;;;;;;;;;;6.32;100.00;101877.84;5013036;28;19951;-74
2023/03/20 06:45:50;;;;;;;;;;;;;;;6.49;100.00;101873.56;5027049;28;20405;-74
2023/03/20 06:48:20;;;;;;;;;;;;;;;6.37;100.00;101880.28;5029348;28;19916;-73
2023/03/20 06:50:45;;;;;;;;;;;;;;;6.44;100.00;101874.63;5030213;28;19921;-74
2023/03/20 06:53:11;;;;;;;;;;;;;;;6.44;100.00;101887.94;5030085;28;20011;-73
2023/03/20 06:55:36;;;;;;;;;;;;;;;6.32;100.00;101880.50;5029774;28;20654;-74
2023/03/20 06:58:01;;;;;;;;;;;;;;;6.36;100.00;101890.06;5042012;28;20390;-73
2023/03/20 07:00:26;;;;;;;;;;;;;;;6.35;100.00;101891.03;5038702;28;19983;-74
2023/03/20 07:02:53;;;;;;;;;;;;;;;6.37;100.00;101894.47;5022285;28;19947;-73
2023/03/20 07:05:18;;;;;;;;;;;;;;;6.43;100.00;101898.72;5005825;28;20249;-74
2023/03/20 07:07:43;;;;;;;;;;;;;;;6.50;100.00;101893.97;5000904;28;20240;-74
2023/03/20 07:10:09;;;;;;;;;;;;;;;6.39;100.00;101899.75;5032388;28;20414;-74
2023/03/20 07:12:34;;;;;;;;;;;;;;;6.44;100.00;101900.44;5019893;28;20394;-74
2023/03/20 07:14:59;;;;;;;;;;;;;;;6.55;100.00;101903.50;5031089;28;19967;-74
2023/03/20 07:17:25;;;;;;;;;;;;;;;6.64;100.00;101914.69;5001563;28;20178;-74
2023/03/20 07:19:50;;;;;;;;;;;;;;;6.60;100.00;101917.50;4998026;28;19997;-73
2023/03/20 07:22:33;;;;;;;;;;;;;;;6.65;100.00;101919.09;5033031;28;20390;-73
2023/03/20 07:24:59;;;;;;;;;;;;;;;6.66;100.00;101918.16;5015902;28;19959;-74
2023/03/20 07:27:24;;;;;;;;;;;;;;;6.63;100.00;101911.16;4997158;28;20031;-74
2023/03/20 07:29:49;;;;;;;;;;;;;;;6.55;100.00;101916.84;5016414;28;19940;-73
2023/03/20 07:32:15;;;;;;;;;;;;;;;6.57;100.00;101920.31;5013891;28;20056;-73
2023/03/20 07:34:40;;;;;;;;;;;;;;;6.65;100.00;101922.63;5010889;28;19924;-74
2023/03/20 07:37:06;;;;;;;;;;;;;;;6.74;100.00;101919.56;5032934;28;20314;-74
2023/03/20 07:39:31;;;;;;;;;;;;;;;6.56;100.00;101915.91;5029154;28;20321;-73
2023/03/20 07:41:56;;;;;;;;;;;;;;;6.70;100.00;101922.44;5046554;28;20345;-73
2023/03/20 07:44:22;;;;;;;;;;;;;;;6.67;100.00;101922.56;5039590;28;19968;-74
2023/03/20 07:46:47;;;;;;;;;;;;;;;6.74;100.00;101914.22;5028011;28;19927;-74
2023/03/20 07:49:12;;;;;;;;;;;;;;;6.92;100.00;101913.47;5013502;28;19921;-73
2023/03/20 07:51:38;;;;;;;;;;;;;;;6.85;100.00;101907.56;5025130;28;19931;-74
2023/03/20 07:54:03;;;;;;;;;;;;;;;6.99;100.00;101909.59;5040970;28;20275;-73
2023/03/20 07:56:29;;;;;;;;;;;;;;;7.11;100.00;101898.34;5046014;28;20255;-73
2023/03/20 07:58:54;;;;;;;;;;;;;;;6.91;100.00;101912.59;5042183;28;20003;-74
2023/03/20 08:01:19;;;;;;;;;;;;;;;6.94;100.00;101904.44;5041701;28;20413;-73
2023/03/20 08:03:45;;;;;;;;;;;;;;;6.72;100.00;101893.88;5018233;28;20442;-73
2023/03/20 08:06:10;;;;;;;;;;;;;;;6.96;100.00;101907.91;5018977;28;19990;-74
2023/03/20 08:08:35;;;;;;;;;;;;;;;7.04;100.00;101911.09;5025100;28;19920;-74
2023/03/20 08:11:01;;;;;;;;;;;;;;;6.92;100.00;101908.97;5028624;28;19928;-74
2023/03/20 08:13:26;;;;;;;;;;;;;;;6.99;100.00;101910.44;5007999;28;20276;-74
2023/03/20 08:15:51;;;;;;;;;;;;;;;7.04;100.00;101912.91;4997720;28;19979;-73
2023/03/20 08:18:16;;;;;;;;;;;;;;;7.06;100.00;101913.69;5032584;28;20362;-76
2023/03/20 08:20:42;;;;;;;;;;;;;;;7.18;100.00;101910.47;5031221;28;19921;-76
2023/03/20 08:23:07;;;;;;;;;;;;;;;7.13;100.00;101916.97;5032892;28;20250;-77
2023/03/20 08:25:33;;;;;;;;;;;;;;;7.08;100.00;101908.31;4997624;28;20338;-76
2023/03/20 08:28:01;;;;;;;;;;;;;;;7.11;100.00;101917.03;5018095;28;20401;-75
2023/03/20 08:30:26;;;;;;;;;;;;;;;7.04;100.00;101912.91;5011576;28;19921;-76
2023/03/20 08:32:52;;;;;;;;;;;;;;;7.12;100.00;101909.91;5014658;28;19928;-75
2023/03/20 08:35:17;;;;;;;;;;;;;;;7.32;100.00;101912.50;5020406;28;19959;-76
2023/03/20 08:37:42;;;;;;;;;;;;;;;7.41;100.00;101908.53;5004557;28;19974;-78
2023/03/20 08:40:08;;;;;;;;;;;;;;;7.32;100.00;101915.19;5021412;28;20370;-76
2023/03/20 08:42:33;;;;;;;;;;;;;;;7.40;100.00;101909.47;5037033;28;19918;-77
2023/03/20 08:44:58;;;;;;;;;;;;;;;7.47;100.00;101910.91;5026003;28;20018;-77
2023/03/20 08:47:24;;;;;;;;;;;;;;;7.53;100.00;101909.75;5026138;28;19917;-75
2023/03/20 08:49:50;;;;;;;;;;;;;;;7.61;100.00;101906.69;5025096;28;19920;-76
2023/03/20 08:52:15;;;;;;;;;;;;;;;7.74;100.00;101912.31;5025598;28;20134;-75
2023/03/20 08:54:40;;;;;;;;;;;;;;;7.43;100.00;101901.31;5025110;28;19920;-75
2023/03/20 08:57:06;;;;;;;;;;;;;;;7.43;100.00;101897.75;5023946;28;19937;-77
2023/03/20 08:59:31;;;;;;;;;;;;;;;7.64;100.00;101904.75;5005238;28;20034;-75
2023/03/20 09:01:57;;;;;;;;;;;;;;;7.50;100.00;101902.75;5015412;28;19977;-76
2023/03/20 09:04:22;;;;;;;;;;;;;;;7.49;100.00;101902.81;5017994;28;20145;-77
2023/03/20 09:06:48;;;;;;;;;;;;;;;7.38;100.00;101881.94;5010427;28;20342;-77
2023/03/20 09:09:14;;;;;;;;;;;;;;;7.34;100.00;101891.94;5020309;28;20282;-77
2023/03/20 09:11:40;;;;;;;;;;;;;;;7.64;100.00;101898.53;5033626;28;20825;-76
2023/03/20 09:14:05;;;;;;;;;;;;;;;7.50;100.00;101897.41;5046932;28;19935;-76
2023/03/20 09:16:30;;;;;;;;;;;;;;;7.66;100.00;101907.34;5041550;28;19958;-76
2023/03/20 09:18:56;;;;;;;;;;;;;;;7.47;100.00;101892.22;5007054;28;19925;-76
2023/03/20 09:21:21;;;;;;;;;;;;;;;7.52;100.00;101908.00;5039588;28;19925;-75
2023/03/20 09:23:46;;;;;;;;;;;;;;;7.46;100.00;101903.84;5023437;28;19920;-76
2023/03/20 09:26:11;;;;;;;;;;;;;;;7.52;100.00;101904.50;5008856;28;20385;-77
2023/03/20 09:28:36;;;;;;;;;;;;;;;7.74;100.00;101904.28;5024463;28;19927;-79
2023/03/20 09:31:02;;;;;;;;;;;;;;;7.52;100.00;101902.66;5025568;28;19967;-76
2023/03/20 09:33:27;;;;;;;;;;;;;;;7.48;100.00;101901.97;5026083;28;19935;-77
2023/03/20 09:35:53;;;;;;;;;;;;;;;7.57;100.00;101914.00;5009731;28;19920;-77
2023/03/20 09:38:18;;;;;;;;;;;;;;;7.65;100.00;101913.63;5025056;28;19967;-77
2023/03/20 09:40:51;;;;;;;;;;;;;;;7.64;100.00;101919.91;5026391;28;19925;-78
2023/03/20 09:43:16;;;;;;;;;;;;;;;7.71;100.00;101912.47;5040566;28;20011;-77
2023/03/20 09:45:44;;;;;;;;;;;;;;;7.73;100.00;101915.94;5042671;28;20011;-77
2023/03/20 09:48:14;;;;;;;;;;;;;;;7.80;100.00;101933.41;5008532;28;20430;-78
2023/03/20 09:50:40;;;;;;;;;;;;;;;7.78;100.00;101927.28;5025778;28;20154;-78
2023/03/20 09:53:10;;;;;;;;;;;;;;;7.69;100.00;101919.69;5039751;28;19917;-78
2023/03/20 09:55:36;;;;;;;;;;;;;;;7.62;100.00;101929.81;5038227;28;20670;-77
2023/03/20 09:58:15;;;;;;;;;;;;;;;7.73;100.00;101932.84;5022164;28;19921;-78
2023/03/20 10:00:42;;;;;;;;;;;;;;;7.72;100.00;101936.47;5036357;28;20484;-77
2023/03/20 10:03:11;;;;;;;;;;;;;;;7.68;100.00;101940.22;5024948;28;19921;-76
2023/03/20 10:05:55;;;;;;;;;;;;;;;7.70;100.00;101933.00;5023448;28;19970;-77
2023/03/20 10:08:22;;;;;;;;;;;;;;;7.75;100.00;101940.78;5039673;28;19931;-78
2023/03/20 10:10:47;;;;;;;;;;;;;;;7.69;100.00;101938.41;5019071;28;19931;-72
2023/03/20 10:13:31;;;;;;;;;;;;;;;7.80;100.00;101933.41;5040729;28;19920;-73
2023/03/20 10:16:00;;;;;;;;;;;;;;;7.80;100.00;101934.28;5037429;28;19925;-76
2023/03/20 10:18:25;;;;;;;;;;;;;;;8.00;100.00;101927.09;5038402;28;19966;-77
2023/03/20 10:20:52;;;;;;;;;;;;;;;7.93;100.00;101920.31;5036566;28;19925;-77
2023/03/20 10:23:23;;;;;;;;;;;;;;;7.96;100.00;101918.34;5021697;28;20442;-78
2023/03/20 10:25:50;;;;;;;;;;;;;;;7.75;100.00;101898.88;5027777;28;19963;-76
2023/03/20 10:28:23;;;;;;;;;;;;;;;7.96;100.00;101918.34;5039981;28;19924;-76
2023/03/20 10:31:11;;;;;;;;;;;;;;;8.14;100.00;101906.78;5020281;28;19917;-77
2023/03/20 10:33:36;;;;;;;;;;;;;;;8.10;100.00;101911.44;5006784;28;19925;-78
2023/03/20 10:36:14;;;;;;;;;;;;;;;8.17;100.00;101909.31;5041367;28;20510;-76
2023/03/20 10:38:39;;;;;;;;;;;;;;;8.43;100.00;101909.78;5039749;28;20441;-76
2023/03/20 10:41:07;;;;;;;;;;;;;;;8.09;100.00;101918.59;5038065;28;19925;-76
2023/03/20 10:43:34;;;;;;;;;;;;;;;8.22;100.00;101907.28;5026363;28;20194;-77
2023/03/20 10:46:01;;;;;;;;;;;;;;;8.14;100.00;101907.69;5022711;28;20429;-75
2023/03/20 10:48:34;;;;;;;;;;;;;;;7.90;100.00;101920.47;5022296;28;19921;-77
2023/03/20 10:51:03;;;;;;;;;;;;;;;7.81;100.00;101917.28;5004124;28;20231;-78
2023/03/20 10:53:44;;;;;;;;;;;;;;;7.86;100.00;101906.38;5040089;28;19926;-76
2023/03/20 10:56:11;;;;;;;;;;;;;;;7.90;100.00;101897.28;5026941;28;19967;-77
2023/03/20 10:58:37;;;;;;;;;;;;;;;7.53;100.00;101903.56;5018470;28;19932;-78
2023/03/20 11:01:02;;;;;;;;;;;;;;;7.53;100.00;101895.53;5026074;28;19942;-77
2023/03/20 11:03:29;;;;;;;;;;;;;;;7.45;100.00;101911.91;5039118;28;19921;-77
2023/03/20 11:06:01;;;;;;;;;;;;;;;7.47;100.00;101910.03;5038022;28;19916;-78
2023/03/20 11:08:33;;;;;;;;;;;;;;;7.64;100.00;101907.44;5021423;28;20571;-79
2023/03/20 11:10:59;;;;;;;;;;;;;;;7.54;100.00;101908.81;5004745;28;20000;-78
2023/03/20 11:13:34;;;;;;;;;;;;;;;7.75;100.00;101893.53;5005351;28;19991;-79
2023/03/20 11:16:15;;;;;;;;;;;;;;;7.69;100.00;101899.19;5010838;28;19921;-78
2023/03/20 11:18:40;;;;;;;;;;;;;;;7.89;100.00;101900.00;5018217;28;19929;-77
2023/03/20 11:21:07;;;;;;;;;;;;;;;7.87;100.00;101894.75;5038116;28;19925;-78
2023/03/20 11:23:32;;;;;;;;;;;;;;;7.77;100.00;101886.31;5037481;28;19921;-75
2023/03/20 11:25:59;;;;;;;;;;;;;;;7.81;100.00;101885.19;5036601;28;19921;-77
2023/03/20 11:28:26;;;;;;;;;;;;;;;8.03;100.00;101888.63;5037939;28;19927;-77
2023/03/20 11:30:56;;;;;;;;;;;;;;;7.96;100.00;101893.41;5004170;28;20302;-77
2023/03/20 11:33:21;;;;;;;;;;;;;;;8.03;100.00;101878.81;5039516;28;19920;-79
2023/03/20 11:35:46;;;;;;;;;;;;;;;7.87;100.00;101881.38;5002685;28;19921;-78
2023/03/20 11:38:16;;;;;;;;;;;;;;;7.94;100.00;101895.31;5033663;28;19970;-76
2023/03/20 11:40:41;;;;;;;;;;;;;;;8.02;100.00;101885.09;5037005;28;19955;-78
2023/03/20 11:43:09;;;;;;;;;;;;;;;8.19;100.00;101878.00;5021959;28;20007;-75
2023/03/20 11:45:35;;;;;;;;;;;;;;;8.11;100.00;101884.59;5037122;28;19920;-76
2023/03/20 11:48:00;;;;;;;;;;;;;;;8.23;100.00;101876.91;5037469;28;20090;-78
2023/03/20 11:50:29;;;;;;;;;;;;;;;8.06;100.00;101875.97;5018500;28;20518;-75
2023/03/20 11:52:54;;;;;;;;;;;;;;;8.11;100.00;101871.22;5021375;28;19912;-76
2023/03/20 11:55:26;;;;;;;;;;;;;;;8.10;100.00;101871.31;5037093;28;20571;-76
2023/03/20 11:57:54;;;;;;;;;;;;;;;8.43;100.00;101853.59;5020216;28;19970;-77
2023/03/20 12:00:20;;;;;;;;;;;;;;;8.44;100.00;101866.03;5019880;28;19997;-76
2023/03/20 12:02:45;;;;;;;;;;;;;;;8.62;100.00;101859.72;5037653;28;20391;-76
2023/03/20 12:05:17;;;;;;;;;;;;;;;8.61;100.00;101854.47;5022197;28;19925;-76
2023/03/20 12:07:43;;;;;;;;;;;;;;;8.58;100.00;101859.97;5037508;28;20420;-74
2023/03/20 12:10:12;;;;;;;;;;;;;;;8.74;100.00;101860.03;5038830;28;20051;-76
2023/03/20 12:12:39;;;;;;;;;;;;;;;8.84;100.00;101859.44;5020692;28;19942;-76
2023/03/20 12:15:11;;;;;;;;;;;;;;;8.70;100.00;101856.66;5026318;28;19924;-76
2023/03/20 12:17:45;;;;;;;;;;;;;;;8.70;100.00;101860.19;5038989;28;19921;-76
2023/03/20 12:20:13;;;;;;;;;;;;;;;8.62;100.00;101861.56;5041145;28;20743;-76
2023/03/20 12:22:44;;;;;;;;;;;;;;;8.60;100.00;101850.06;5039384;28;19920;-76
2023/03/20 12:25:17;;;;;;;;;;;;;;;8.79;100.00;101847.28;5005533;28;19916;-76
2023/03/20 12:27:46;;;;;;;;;;;;;;;8.73;100.00;101847.59;5013719;28;19962;-76
2023/03/20 12:30:12;;;;;;;;;;;;;;;8.53;100.00;101844.19;5019870;28;20465;-75
2023/03/20 12:32:50;;;;;;;;;;;;;;;8.54;100.00;101841.41;5016680;28;20393;-77
2023/03/20 12:35:21;;;;;;;;;;;;;;;8.81;100.00;101834.66;5020861;28;20426;-77